Twr-841 — NAVY841 — position and weather

sailwx.info

Track history (hours):
 
Tides and Currents Weather Stations Pressure Air Temp Water Temp Dewpoint Dewpoint Depression Visibility Wind Speed Wind Dir Waves Ship Positions

Twr-841

Last reported at 2014-Oct-31 10:33 UTC. Time now 2014-Oct-31 15:36 UTC.
Position N 39°34' W 074°09'.

Length 39 m.

Type: Military. MMSI: 369970385.

Date/timePositionNaut miles runAvg speedWind from/ knotsBaromVisibWave heightAir tempDewpointWater temp
2014-Oct-31 10:33N 39°34' W 074°09'1010.2
2014-Oct-31 09:33N 39°43' W 074°03'90 9.6
2014-Oct-31 00:09N 40°44' W 072°36'6 9.9
2014-Oct-30 23:33N 40°46' W 072°29'10 9.7
2014-Oct-30 22:33N 40°51' W 072°17'9 9.5
2014-Oct-30 21:33N 40°55' W 072°06'10 9.6
2014-Oct-30 20:33N 40°59' W 071°55'9 9.2
2014-Oct-30 19:33N 41°04' W 071°44'10 9.7
2014-Oct-30 18:33N 41°12' W 071°38'1010.4
2014-Oct-30 17:33N 41°20' W 071°29'14 2.0
2014-Oct-30 10:22N 41°32' W 071°19'0 0.0
2014-Oct-30 09:19N 41°32' W 071°19'0 0.0
2014-Oct-30 08:31N 41°32' W 071°19'0 0.0
2014-Oct-30 07:31N 41°32' W 071°19'0 0.0
2014-Oct-30 05:28N 41°32' W 071°19'0 0.0
2014-Oct-29 10:31N 41°32' W 071°19'0 0.0
2014-Oct-29 04:16N 41°32' W 071°19'0 0.0
2014-Oct-29 03:31N 41°32' W 071°19'0 0.0
2014-Oct-29 02:31N 41°32' W 071°19'0 0.0
2014-Oct-29 01:31N 41°32' W 071°19'0 0.0
2014-Oct-29 00:31N 41°32' W 071°19'0 0.0
2014-Oct-28 23:31N 41°32' W 071°19'0 0.0
2014-Oct-28 22:22N 41°32' W 071°19'0 0.0
2014-Oct-28 21:28N 41°32' W 071°19'0 0.0
2014-Oct-28 13:28N 41°32' W 071°19'0 0.0
2014-Oct-28 12:28N 41°32' W 071°19'0 0.0
2014-Oct-28 11:22N 41°32' W 071°19'0 0.0
2014-Oct-28 10:31N 41°32' W 071°19'0 0.0
2014-Oct-28 09:31N 41°32' W 071°19'0 0.0
2014-Oct-28 08:10N 41°32' W 071°19'0 0.0
2014-Oct-28 07:22N 41°32' W 071°19'0 0.0
2014-Oct-28 06:31N 41°32' W 071°19'0 0.0
2014-Oct-28 04:16N 41°32' W 071°19'0 0.0
2014-Oct-28 03:31N 41°32' W 071°19'0 0.0
2014-Oct-26 09:22N 41°32' W 071°19'0 0.0
2014-Oct-26 08:07N 41°32' W 071°19'0 0.0
2014-Oct-26 07:31N 41°32' W 071°19'0 0.0
2014-Oct-25 11:28N 41°32' W 071°19'0 0.0
2014-Oct-25 10:28N 41°32' W 071°19'  
2014-Oct-21 23:10N 41°32' W 071°19'0 0.0
2014-Oct-21 22:28N 41°32' W 071°19'  
Track history (hours):
 
Tides and Currents Weather Stations Pressure Air Temp Water Temp Dewpoint Dewpoint Depression Visibility Wind Speed Wind Dir Waves Ship Positions

Twr-841

Last reported at 2014-Oct-31 10:33 UTC. Time now 2014-Oct-31 15:36 UTC.
Position N 39°34' W 074°09'.

Length 39 m.

Type: Military. MMSI: 369970385.

Date/timePositionNaut miles runAvg speedWind from/ knotsBaromVisibWave heightAir tempDewpointWater temp
2014-Oct-31 10:33N 39°34' W 074°09'1010.2
2014-Oct-31 09:33N 39°43' W 074°03'90 9.6
2014-Oct-31 00:09N 40°44' W 072°36'6 9.9
2014-Oct-30 23:33N 40°46' W 072°29'10 9.7
2014-Oct-30 22:33N 40°51' W 072°17'9 9.5
2014-Oct-30 21:33N 40°55' W 072°06'10 9.6
2014-Oct-30 20:33N 40°59' W 071°55'9 9.2
2014-Oct-30 19:33N 41°04' W 071°44'10 9.7
2014-Oct-30 18:33N 41°12' W 071°38'1010.4
2014-Oct-30 17:33N 41°20' W 071°29'14 2.0
2014-Oct-30 10:22N 41°32' W 071°19'0 0.0
2014-Oct-30 09:19N 41°32' W 071°19'0 0.0
2014-Oct-30 08:31N 41°32' W 071°19'0 0.0
2014-Oct-30 07:31N 41°32' W 071°19'0 0.0
2014-Oct-30 05:28N 41°32' W 071°19'0 0.0
2014-Oct-29 10:31N 41°32' W 071°19'0 0.0
2014-Oct-29 04:16N 41°32' W 071°19'0 0.0
2014-Oct-29 03:31N 41°32' W 071°19'0 0.0
2014-Oct-29 02:31N 41°32' W 071°19'0 0.0
2014-Oct-29 01:31N 41°32' W 071°19'0 0.0
2014-Oct-29 00:31N 41°32' W 071°19'0 0.0
2014-Oct-28 23:31N 41°32' W 071°19'0 0.0
2014-Oct-28 22:22N 41°32' W 071°19'0 0.0
2014-Oct-28 21:28N 41°32' W 071°19'0 0.0
2014-Oct-28 13:28N 41°32' W 071°19'0 0.0
2014-Oct-28 12:28N 41°32' W 071°19'0 0.0
2014-Oct-28 11:22N 41°32' W 071°19'0 0.0
2014-Oct-28 10:31N 41°32' W 071°19'0 0.0
2014-Oct-28 09:31N 41°32' W 071°19'0 0.0
2014-Oct-28 08:10N 41°32' W 071°19'0 0.0
2014-Oct-28 07:22N 41°32' W 071°19'0 0.0
2014-Oct-28 06:31N 41°32' W 071°19'0 0.0
2014-Oct-28 04:16N 41°32' W 071°19'0 0.0
2014-Oct-28 03:31N 41°32' W 071°19'0 0.0
2014-Oct-26 09:22N 41°32' W 071°19'0 0.0
2014-Oct-26 08:07N 41°32' W 071°19'0 0.0
2014-Oct-26 07:31N 41°32' W 071°19'0 0.0
2014-Oct-25 11:28N 41°32' W 071°19'0 0.0
2014-Oct-25 10:28N 41°32' W 071°19'  
2014-Oct-21 23:10N 41°32' W 071°19'0 0.0
2014-Oct-21 22:28N 41°32' W 071°19'  

Dump ship's entire track history